Time;durP1;ratioP1;P1;durP2;ratioP2;P2;SDS_P1;SDS_P2;PMS_P1;PMS_P2;Temp;Humidity;BMP_temperature;BMP_pressure;BME280_temperature;BME280_humidity;BME280_pressure;Samples;Min_cycle;Max_cycle;Signal;HPM_P1;HPM_P2
2021/03/15 00:01:47;;;;;;;6.30;3.58;;;;;;;;;;5022542;28;20073;-70
2021/03/15 00:04:13;;;;;;;6.10;3.70;;;;;;;;;;5014626;28;20049;-71
2021/03/15 00:06:39;;;;;;;4.97;3.58;;;;;;;;;;5010778;28;20509;-71
2021/03/15 00:09:05;;;;;;;10.35;3.75;;;;;;;;;;5011426;28;20120;-71
2021/03/15 00:11:31;;;;;;;5.78;3.47;;;;;;;;;;5023419;28;20131;-71
2021/03/15 00:13:58;;;;;;;7.35;3.90;;;;;;;;;;5011375;28;20061;-71
2021/03/15 00:16:24;;;;;;;8.45;3.65;;;;;;;;;;5010935;28;20073;-71
2021/03/15 00:18:50;;;;;;;6.95;3.90;;;;;;;;;;5022795;28;20045;-71
2021/03/15 00:21:16;;;;;;;6.88;3.20;;;;;;;;;;5019483;28;20081;-71
2021/03/15 00:23:42;;;;;;;6.80;3.45;;;;;;;;;;5011399;28;20471;-71
2021/03/15 00:26:08;;;;;;;8.07;4.30;;;;;;;;;;5012002;28;20046;-71
2021/03/15 00:28:34;;;;;;;10.35;4.57;;;;;;;;;;5014711;28;20151;-71
2021/03/15 00:31:00;;;;;;;7.13;3.50;;;;;;;;;;5014696;28;20050;-71
2021/03/15 00:33:26;;;;;;;6.90;3.55;;;;;;;;;;5014830;28;20049;-71
2021/03/15 00:35:53;;;;;;;5.95;3.47;;;;;;;;;;5014044;28;20065;-70
2021/03/15 00:38:19;;;;;;;8.32;3.65;;;;;;;;;;5014495;28;20085;-70
2021/03/15 00:40:45;;;;;;;8.43;3.28;;;;;;;;;;5014569;28;20053;-71
2021/03/15 00:43:11;;;;;;;10.15;3.53;;;;;;;;;;5014552;28;20433;-70
2021/03/15 00:45:37;;;;;;;6.32;3.58;;;;;;;;;;5015264;28;20061;-70
2021/03/15 00:48:04;;;;;;;10.40;3.80;;;;;;;;;;5014388;28;20081;-70
2021/03/15 00:50:34;;;;;;;6.07;3.75;;;;;;;;;;5014552;28;20100;-71
2021/03/15 00:53:01;;;;;;;7.93;3.95;;;;;;;;;;5014298;28;20397;-70
2021/03/15 00:55:27;;;;;;;7.90;3.88;;;;;;;;;;5021548;28;20505;-70
2021/03/15 00:57:53;;;;;;;4.72;3.40;;;;;;;;;;5025617;28;20045;-71
2021/03/15 01:00:24;;;;;;;8.60;3.65;;;;;;;;;;5025928;28;20633;-71
2021/03/15 01:02:50;;;;;;;6.13;4.10;;;;;;;;;;5025952;28;20050;-70
2021/03/15 01:05:19;;;;;;;6.05;3.20;;;;;;;;;;5033509;28;20111;-70
2021/03/15 01:07:45;;;;;;;5.50;3.03;;;;;;;;;;5033507;28;20119;-71
2021/03/15 01:10:12;;;;;;;8.85;3.70;;;;;;;;;;5009660;28;20077;-71
2021/03/15 01:12:38;;;;;;;4.88;3.53;;;;;;;;;;5032396;28;20103;-70
2021/03/15 01:15:09;;;;;;;4.82;2.90;;;;;;;;;;5033633;28;20089;-69
2021/03/15 01:17:35;;;;;;;3.70;2.78;;;;;;;;;;5007949;28;20100;-70
2021/03/15 01:20:04;;;;;;;6.45;3.38;;;;;;;;;;5033729;28;20132;-71
2021/03/15 01:22:30;;;;;;;6.18;3.55;;;;;;;;;;5016200;28;20397;-71
2021/03/15 01:24:56;;;;;;;4.55;2.75;;;;;;;;;;5033476;28;20420;-71
2021/03/15 01:27:22;;;;;;;6.60;2.72;;;;;;;;;;5032461;28;20049;-71
2021/03/15 01:29:48;;;;;;;5.68;2.90;;;;;;;;;;5033580;28;20103;-71
2021/03/15 01:32:14;;;;;;;4.30;2.75;;;;;;;;;;5033259;28;20086;-71
2021/03/15 01:34:40;;;;;;;6.97;2.88;;;;;;;;;;5033435;28;20132;-71
2021/03/15 01:37:06;;;;;;;6.47;3.00;;;;;;;;;;5015210;28;20409;-70
2021/03/15 01:39:33;;;;;;;4.93;3.13;;;;;;;;;;5013440;28;20401;-70
2021/03/15 01:42:00;;;;;;;5.95;3.42;;;;;;;;;;5013340;28;20085;-70
2021/03/15 01:44:26;;;;;;;5.38;3.30;;;;;;;;;;5013314;28;20489;-70
2021/03/15 01:46:52;;;;;;;5.65;3.10;;;;;;;;;;5012683;28;20046;-71
2021/03/15 01:49:18;;;;;;;7.32;3.45;;;;;;;;;;5013203;28;20050;-70
2021/03/15 01:51:44;;;;;;;4.50;2.92;;;;;;;;;;5013155;28;20053;-70
2021/03/15 01:54:14;;;;;;;7.13;3.70;;;;;;;;;;4995827;28;20046;-70
2021/03/15 01:56:40;;;;;;;11.43;3.38;;;;;;;;;;4994056;28;20042;-71
2021/03/15 01:59:06;;;;;;;8.27;3.28;;;;;;;;;;4998034;28;20107;-70
2021/03/15 02:01:32;;;;;;;5.90;3.47;;;;;;;;;;5010965;28;20054;-71
2021/03/15 02:03:59;;;;;;;8.30;3.33;;;;;;;;;;5024605;28;20049;-71
2021/03/15 02:06:25;;;;;;;7.70;3.40;;;;;;;;;;5021367;28;20049;-70
2021/03/15 02:08:51;;;;;;;5.13;3.75;;;;;;;;;;5012689;28;20081;-71
2021/03/15 02:11:48;;;;;;;6.93;3.20;;;;;;;;;;5020970;28;20192;-71
2021/03/15 02:14:33;;;;;;;10.32;4.85;;;;;;;;;;5012941;28;20054;-70
2021/03/15 02:17:08;;;;;;;6.75;3.47;;;;;;;;;;4994718;28;20096;-71
2021/03/15 02:19:47;;;;;;;7.63;3.42;;;;;;;;;;5011203;28;20081;-71
2021/03/15 02:22:33;;;;;;;5.65;3.53;;;;;;;;;;5032534;28;20504;-70
2021/03/15 02:25:33;;;;;;;6.80;4.30;;;;;;;;;;5002789;28;20049;-71
2021/03/15 02:28:23;;;;;;;7.97;3.85;;;;;;;;;;5012464;28;20164;-71
2021/03/15 02:31:27;;;;;;;7.88;3.88;;;;;;;;;;5012547;28;20058;-71
2021/03/15 02:34:06;;;;;;;5.40;3.67;;;;;;;;;;5012395;28;20049;-70
2021/03/15 02:36:35;;;;;;;10.02;3.80;;;;;;;;;;4979121;28;20604;-70
2021/03/15 02:39:03;;;;;;;5.05;3.70;;;;;;;;;;4995282;28;20160;-70
2021/03/15 02:41:29;;;;;;;9.60;3.70;;;;;;;;;;5012257;28;20054;-70
2021/03/15 02:43:58;;;;;;;4.68;3.22;;;;;;;;;;4995062;28;20503;-70
2021/03/15 02:46:25;;;;;;;7.57;3.47;;;;;;;;;;5007518;28;20099;-70
2021/03/15 02:48:54;;;;;;;6.07;3.80;;;;;;;;;;4997887;28;20129;-70
2021/03/15 02:51:25;;;;;;;7.82;3.92;;;;;;;;;;4998290;28;20087;-70
2021/03/15 02:53:51;;;;;;;6.50;3.88;;;;;;;;;;5014357;28;20127;-70
2021/03/15 02:56:25;;;;;;;8.52;4.40;;;;;;;;;;4994089;28;20045;-71
2021/03/15 02:58:54;;;;;;;6.53;3.63;;;;;;;;;;4990187;28;20096;-71
2021/03/15 03:01:20;;;;;;;7.43;4.10;;;;;;;;;;5002913;28;20505;-70
2021/03/15 03:03:47;;;;;;;5.95;3.50;;;;;;;;;;4997808;28;20049;-71
2021/03/15 03:06:13;;;;;;;5.82;4.10;;;;;;;;;;5013417;28;20049;-70
2021/03/15 03:08:39;;;;;;;7.05;4.03;;;;;;;;;;5029453;28;20084;-71
2021/03/15 03:11:05;;;;;;;11.20;5.22;;;;;;;;;;5019848;28;20050;-71
2021/03/15 03:13:31;;;;;;;9.77;4.10;;;;;;;;;;4992324;28;20449;-70
2021/03/15 03:15:57;;;;;;;6.07;4.35;;;;;;;;;;4993733;28;20046;-70
2021/03/15 03:18:25;;;;;;;6.05;3.63;;;;;;;;;;4994714;28;20108;-70
2021/03/15 03:20:53;;;;;;;9.30;4.15;;;;;;;;;;5011837;28;20105;-70
2021/03/15 03:23:19;;;;;;;8.15;3.65;;;;;;;;;;5003628;28;20054;-70
2021/03/15 03:25:45;;;;;;;7.90;4.32;;;;;;;;;;5011049;28;20108;-70
2021/03/15 03:28:11;;;;;;;10.15;4.05;;;;;;;;;;4994255;28;20081;-70
2021/03/15 03:30:39;;;;;;;10.35;3.97;;;;;;;;;;4995026;28;20049;-71
2021/03/15 03:33:06;;;;;;;9.82;4.70;;;;;;;;;;4978378;28;20050;-71
2021/03/15 03:35:32;;;;;;;9.05;4.53;;;;;;;;;;4993700;28;20492;-70
2021/03/15 03:37:59;;;;;;;7.57;4.30;;;;;;;;;;5011694;28;20452;-70
2021/03/15 03:40:26;;;;;;;7.72;4.18;;;;;;;;;;4978315;28;20050;-70
2021/03/15 03:42:52;;;;;;;9.75;4.32;;;;;;;;;;4994305;28;20053;-70
2021/03/15 03:45:18;;;;;;;9.45;3.80;;;;;;;;;;5010978;28;20087;-70
2021/03/15 03:47:44;;;;;;;9.88;4.50;;;;;;;;;;5011628;28;20073;-70
2021/03/15 03:50:16;;;;;;;12.63;4.30;;;;;;;;;;5011915;28;20053;-70
2021/03/15 03:53:01;;;;;;;9.15;3.30;;;;;;;;;;4978169;28;20054;-70
2021/03/15 03:55:32;;;;;;;7.85;3.63;;;;;;;;;;5001406;28;20049;-70
2021/03/15 03:57:59;;;;;;;6.10;3.60;;;;;;;;;;4995640;28;20046;-70
2021/03/15 04:00:25;;;;;;;10.55;4.20;;;;;;;;;;5002913;28;20041;-70
2021/03/15 04:02:54;;;;;;;10.35;4.20;;;;;;;;;;4989697;28;20440;-70
2021/03/15 04:05:28;;;;;;;6.32;3.55;;;;;;;;;;5014567;28;20058;-70
2021/03/15 04:07:59;;;;;;;6.75;3.72;;;;;;;;;;4998325;28;20574;-70
2021/03/15 04:10:29;;;;;;;6.15;3.60;;;;;;;;;;4989918;28;20124;-70
2021/03/15 04:12:58;;;;;;;7.53;4.00;;;;;;;;;;5022899;28;20050;-70
2021/03/15 04:15:24;;;;;;;5.88;3.28;;;;;;;;;;5025879;28;20079;-70
2021/03/15 04:17:50;;;;;;;5.30;4.38;;;;;;;;;;5017183;28;20041;-70
2021/03/15 04:20:31;;;;;;;8.57;4.28;;;;;;;;;;5001009;28;20049;-70
2021/03/15 04:22:58;;;;;;;8.65;4.30;;;;;;;;;;5002738;28;20112;-70
2021/03/15 04:25:26;;;;;;;8.40;3.50;;;;;;;;;;4997358;28;20111;-70
2021/03/15 04:27:53;;;;;;;6.65;3.53;;;;;;;;;;4981309;28;20112;-70
2021/03/15 04:30:20;;;;;;;6.13;3.55;;;;;;;;;;4997440;28;20111;-70
2021/03/15 04:32:52;;;;;;;10.13;4.38;;;;;;;;;;4997482;28;20046;-70
2021/03/15 04:35:31;;;;;;;7.50;4.03;;;;;;;;;;4987398;28;20092;-70
2021/03/15 04:37:59;;;;;;;6.80;3.10;;;;;;;;;;5014529;28;20058;-70
2021/03/15 04:40:27;;;;;;;5.45;3.40;;;;;;;;;;4997320;28;20049;-70
2021/03/15 04:42:59;;;;;;;3.80;2.80;;;;;;;;;;5014398;28;20081;-70
2021/03/15 04:45:43;;;;;;;4.90;2.85;;;;;;;;;;4997484;28;20112;-70
2021/03/15 04:48:11;;;;;;;8.35;3.40;;;;;;;;;;4997922;28;20057;-70
2021/03/15 04:50:37;;;;;;;10.27;3.83;;;;;;;;;;4981258;28;20054;-70
2021/03/15 04:53:03;;;;;;;5.65;3.47;;;;;;;;;;5008434;28;20061;-70
2021/03/15 04:55:30;;;;;;;6.28;3.58;;;;;;;;;;5004145;28;20056;-70
2021/03/15 04:57:58;;;;;;;8.23;3.28;;;;;;;;;;5009121;28;20456;-70
2021/03/15 05:00:24;;;;;;;6.38;3.42;;;;;;;;;;5008488;28;20420;-70
2021/03/15 05:02:50;;;;;;;4.85;2.88;;;;;;;;;;5014062;28;20077;-70
2021/03/15 05:05:17;;;;;;;7.68;3.60;;;;;;;;;;5003250;28;20049;-70
2021/03/15 05:07:46;;;;;;;9.80;3.30;;;;;;;;;;5025484;28;20080;-70
2021/03/15 05:10:13;;;;;;;8.50;3.30;;;;;;;;;;5000248;28;20139;-71
2021/03/15 05:12:39;;;;;;;5.65;3.13;;;;;;;;;;5022038;28;20085;-71
2021/03/15 05:15:07;;;;;;;5.53;3.40;;;;;;;;;;4980230;28;20053;-71
2021/03/15 05:17:37;;;;;;;7.07;4.00;;;;;;;;;;5004661;28;20139;-71
2021/03/15 05:20:05;;;;;;;6.90;3.47;;;;;;;;;;5010036;28;20440;-71
2021/03/15 05:22:32;;;;;;;14.38;3.92;;;;;;;;;;5006617;28;20069;-71
2021/03/15 05:25:02;;;;;;;6.43;3.75;;;;;;;;;;4996446;28;20100;-71
2021/03/15 05:27:28;;;;;;;7.20;3.30;;;;;;;;;;4996093;28;20053;-71
2021/03/15 05:29:54;;;;;;;5.00;3.38;;;;;;;;;;4996390;28;20108;-70
2021/03/15 05:32:22;;;;;;;8.57;3.15;;;;;;;;;;4996309;28;20489;-71
2021/03/15 05:34:48;;;;;;;9.98;3.40;;;;;;;;;;4980320;28;20084;-71
2021/03/15 05:37:14;;;;;;;6.72;2.88;;;;;;;;;;4995546;28;20042;-71
2021/03/15 05:39:40;;;;;;;5.20;3.08;;;;;;;;;;4996105;28;20054;-71
2021/03/15 05:42:22;;;;;;;5.63;3.30;;;;;;;;;;5013329;28;20085;-71
2021/03/15 05:45:06;;;;;;;6.60;3.35;;;;;;;;;;5013544;28;20049;-71
2021/03/15 05:48:04;;;;;;;4.32;2.80;;;;;;;;;;5013078;28;20088;-71
2021/03/15 05:50:53;;;;;;;4.93;3.03;;;;;;;;;;4996921;28;20058;-71
2021/03/15 05:53:34;;;;;;;5.60;3.30;;;;;;;;;;4976382;28;20054;-71
2021/03/15 05:56:08;;;;;;;7.10;3.83;;;;;;;;;;4995341;28;20509;-71
2021/03/15 05:58:46;;;;;;;4.78;3.75;;;;;;;;;;5005618;28;20062;-71
2021/03/15 06:01:33;;;;;;;9.70;3.88;;;;;;;;;;5024672;28;20075;-71
2021/03/15 06:04:24;;;;;;;5.50;2.88;;;;;;;;;;5012866;28;20069;-71
2021/03/15 06:06:50;;;;;;;3.85;2.88;;;;;;;;;;5019128;28;20551;-71
2021/03/15 06:09:19;;;;;;;5.50;3.03;;;;;;;;;;5003286;28;20050;-71
2021/03/15 06:11:46;;;;;;;4.97;2.85;;;;;;;;;;5021209;28;20054;-71
2021/03/15 06:14:13;;;;;;;6.50;2.97;;;;;;;;;;5010089;28;20536;-70
2021/03/15 06:16:40;;;;;;;5.25;2.70;;;;;;;;;;5030204;28;20470;-69
2021/03/15 06:19:07;;;;;;;6.15;3.25;;;;;;;;;;5007148;28;20050;-69
2021/03/15 06:21:35;;;;;;;5.78;2.83;;;;;;;;;;5011033;28;20566;-69
2021/03/15 06:24:01;;;;;;;4.95;2.88;;;;;;;;;;5010442;28;20045;-70
2021/03/15 06:26:29;;;;;;;6.47;2.83;;;;;;;;;;5010265;28;20586;-69
2021/03/15 06:29:00;;;;;;;4.90;2.65;;;;;;;;;;5010101;28;20121;-69
2021/03/15 06:31:28;;;;;;;5.90;3.17;;;;;;;;;;4994058;28;20523;-69
2021/03/15 06:33:54;;;;;;;7.75;2.90;;;;;;;;;;5007795;28;20062;-69
2021/03/15 06:36:21;;;;;;;4.90;2.70;;;;;;;;;;5012351;28;20076;-69
2021/03/15 06:38:47;;;;;;;5.68;2.92;;;;;;;;;;4996569;28;20058;-69
2021/03/15 06:41:13;;;;;;;4.22;2.40;;;;;;;;;;5012328;28;20100;-69
2021/03/15 06:43:39;;;;;;;7.30;3.00;;;;;;;;;;4998290;28;20111;-69
2021/03/15 06:46:06;;;;;;;4.15;2.75;;;;;;;;;;5029791;28;20049;-69
2021/03/15 06:48:32;;;;;;;7.00;3.20;;;;;;;;;;5012917;28;20076;-69
2021/03/15 06:50:58;;;;;;;6.63;2.90;;;;;;;;;;5030158;28;20057;-68
2021/03/15 06:53:25;;;;;;;5.43;3.42;;;;;;;;;;5030273;28;20080;-69
2021/03/15 06:55:52;;;;;;;3.97;2.58;;;;;;;;;;5020654;28;20053;-69
2021/03/15 06:58:23;;;;;;;5.05;2.60;;;;;;;;;;5015554;28;20087;-69
2021/03/15 07:01:15;;;;;;;4.18;2.30;;;;;;;;;;5021956;28;20057;-69
2021/03/15 07:03:46;;;;;;;6.13;2.60;;;;;;;;;;5003063;28;20050;-69
2021/03/15 07:06:14;;;;;;;2.65;2.20;;;;;;;;;;5018027;28;20665;-69
2021/03/15 07:08:40;;;;;;;4.15;2.90;;;;;;;;;;5010659;28;20136;-69
2021/03/15 07:11:25;;;;;;;4.22;2.25;;;;;;;;;;5011173;28;20064;-70
2021/03/15 07:13:51;;;;;;;4.03;2.10;;;;;;;;;;5018404;28;20054;-71
2021/03/15 07:16:29;;;;;;;4.28;2.05;;;;;;;;;;5009774;28;20081;-70
2021/03/15 07:18:58;;;;;;;2.08;1.85;;;;;;;;;;4992232;28;20647;-71
2021/03/15 07:21:39;;;;;;;3.22;2.03;;;;;;;;;;5024881;28;20123;-70
2021/03/15 07:24:12;;;;;;;5.03;2.10;;;;;;;;;;5008206;28;20103;-71
2021/03/15 07:26:44;;;;;;;3.42;2.15;;;;;;;;;;5009101;28;20042;-70
2021/03/15 07:29:18;;;;;;;5.72;3.45;;;;;;;;;;4992451;28;20053;-70
2021/03/15 07:31:48;;;;;;;4.13;2.60;;;;;;;;;;4992380;28;20077;-71
2021/03/15 07:34:17;;;;;;;4.30;2.60;;;;;;;;;;5009189;28;20050;-71
2021/03/15 07:36:50;;;;;;;2.65;2.05;;;;;;;;;;5021191;28;20579;-71
2021/03/15 07:39:17;;;;;;;3.08;1.95;;;;;;;;;;5013535;28;20053;-71
2021/03/15 07:41:48;;;;;;;2.42;1.40;;;;;;;;;;5013698;28;20485;-70
2021/03/15 07:44:20;;;;;;;1.60;1.50;;;;;;;;;;5013113;28;20057;-71
2021/03/15 07:46:47;;;;;;;2.63;1.30;;;;;;;;;;5023442;28;20436;-70
2021/03/15 07:49:26;;;;;;;2.35;1.20;;;;;;;;;;5029919;28;20505;-70
2021/03/15 07:51:54;;;;;;;1.83;1.13;;;;;;;;;;5013298;28;20042;-70
2021/03/15 07:54:27;;;;;;;1.90;1.00;;;;;;;;;;5013460;28;20073;-70
2021/03/15 07:57:12;;;;;;;2.95;1.80;;;;;;;;;;5019484;28;20057;-70
2021/03/15 07:59:40;;;;;;;1.92;1.60;;;;;;;;;;5018686;28;20329;-71
2021/03/15 08:02:09;;;;;;;3.20;1.27;;;;;;;;;;5008828;28;20162;-72
2021/03/15 08:04:35;;;;;;;1.95;1.20;;;;;;;;;;5009176;28;20049;-72
2021/03/15 08:07:02;;;;;;;2.33;1.60;;;;;;;;;;5002906;28;20046;-72
2021/03/15 08:09:28;;;;;;;1.15;1.05;;;;;;;;;;4988035;28;20135;-75
2021/03/15 08:12:10;;;;;;;2.35;1.20;;;;;;;;;;5022638;28;20501;-72
2021/03/15 08:14:37;;;;;;;2.72;1.00;;;;;;;;;;5001820;28;20048;-73
2021/03/15 08:17:04;;;;;;;3.25;1.30;;;;;;;;;;5021353;28;20081;-74
2021/03/15 08:19:32;;;;;;;1.40;1.30;;;;;;;;;;4996381;28;20096;-74
2021/03/15 08:21:59;;;;;;;3.25;1.55;;;;;;;;;;5010708;28;20045;-73
2021/03/15 08:24:25;;;;;;;3.47;1.58;;;;;;;;;;5008667;28;20516;-72
2021/03/15 08:26:51;;;;;;;2.05;1.50;;;;;;;;;;5020600;28;20579;-72
2021/03/15 08:29:18;;;;;;;1.98;1.33;;;;;;;;;;4990489;28;20238;-72
2021/03/15 08:31:47;;;;;;;3.63;1.63;;;;;;;;;;5006958;28;20138;-72
2021/03/15 08:34:14;;;;;;;2.17;1.70;;;;;;;;;;4988338;28;20057;-74
2021/03/15 08:36:45;;;;;;;2.50;2.28;;;;;;;;;;5001724;28;20061;-74
2021/03/15 08:39:27;;;;;;;2.20;1.42;;;;;;;;;;4995716;28;20152;-71
2021/03/15 08:42:14;;;;;;;1.50;1.40;;;;;;;;;;5020134;28;20049;-73
2021/03/15 08:45:00;;;;;;;2.30;1.30;;;;;;;;;;5017181;28;20379;-72
2021/03/15 08:47:52;;;;;;;3.53;1.27;;;;;;;;;;5018438;28;20049;-71
2021/03/15 08:50:34;;;;;;;2.15;1.38;;;;;;;;;;5020106;28;20108;-72
2021/03/15 08:53:01;;;;;;;1.85;1.63;;;;;;;;;;5017779;28;20161;-72
2021/03/15 08:55:42;;;;;;;3.42;2.00;;;;;;;;;;5005311;28;20050;-69
2021/03/15 08:58:37;;;;;;;4.32;1.38;;;;;;;;;;5021341;28;20077;-72
2021/03/15 09:01:08;;;;;;;3.08;1.40;;;;;;;;;;5023824;28;20042;-72
2021/03/15 09:03:51;;;;;;;1.10;1.00;;;;;;;;;;5022094;28;20045;-72
2021/03/15 09:06:33;;;;;;;1.35;1.10;;;;;;;;;;5017412;28;20142;-72
2021/03/15 09:09:04;;;;;;;1.73;1.10;;;;;;;;;;5019449;28;20049;-70
2021/03/15 09:11:42;;;;;;;1.08;0.90;;;;;;;;;;5018660;28;20084;-71
2021/03/15 09:14:14;;;;;;;1.33;0.90;;;;;;;;;;5017312;28;20555;-72
2021/03/15 09:16:46;;;;;;;0.80;0.80;;;;;;;;;;5019050;28;20523;-72
2021/03/15 09:19:20;;;;;;;1.95;1.30;;;;;;;;;;5001208;28;20746;-72
2021/03/15 09:22:04;;;;;;;19.60;1.40;;;;;;;;;;5014147;28;20044;-72
2021/03/15 09:24:45;;;;;;;1.27;1.00;;;;;;;;;;5023112;28;20061;-70
2021/03/15 09:27:28;;;;;;;1.65;1.10;;;;;;;;;;5020705;28;20054;-72
2021/03/15 09:30:00;;;;;;;1.10;1.00;;;;;;;;;;4997002;28;20064;-70
2021/03/15 09:32:46;;;;;;;;;;;;;;;;;;4990230;28;20409;-71
2021/03/15 09:35:20;;;;;;;2.38;1.17;;;;;;;;;;5018179;28;19921;-71
2021/03/15 09:37:52;;;;;;;2.10;0.88;;;;;;;;;;5019601;28;20050;-72
2021/03/15 09:40:20;;;;;;;2.38;1.38;;;;;;;;;;5018363;28;20084;-74
2021/03/15 09:42:46;;;;;;;2.30;1.20;;;;;;;;;;5004274;28;20111;-73
2021/03/15 09:45:22;;;;;;;1.35;1.10;;;;;;;;;;5009551;28;20064;-71
2021/03/15 09:47:48;;;;;;;3.22;1.45;;;;;;;;;;5003737;28;20107;-72
2021/03/15 09:50:23;;;;;;;1.30;1.20;;;;;;;;;;5007568;28;20061;-72
2021/03/15 09:52:49;;;;;;;3.08;1.42;;;;;;;;;;5013831;28;20050;-72
2021/03/15 09:55:15;;;;;;;2.30;1.80;;;;;;;;;;5015912;28;20100;-73
2021/03/15 09:57:42;;;;;;;2.75;1.70;;;;;;;;;;5015289;28;20097;-74
2021/03/15 10:00:19;;;;;;;4.80;2.30;;;;;;;;;;4978332;28;20747;-75
2021/03/15 10:02:45;;;;;;;4.32;2.53;;;;;;;;;;5019853;28;20049;-74
2021/03/15 10:05:17;;;;;;;4.55;2.90;;;;;;;;;;4996764;28;20083;-73
2021/03/15 10:07:46;;;;;;;7.00;3.55;;;;;;;;;;4994651;28;20053;-74
2021/03/15 10:10:17;;;;;;;9.10;4.85;;;;;;;;;;5015039;28;20169;-75
2021/03/15 10:12:45;;;;;;;5.22;3.35;;;;;;;;;;5011841;28;20095;-77
2021/03/15 10:15:12;;;;;;;3.88;2.30;;;;;;;;;;5007693;28;20058;-73
2021/03/15 10:17:39;;;;;;;2.92;2.08;;;;;;;;;;4985874;28;20049;-79
2021/03/15 10:20:39;;;;;;;3.15;2.35;;;;;;;;;;4988453;28;20057;-76
2021/03/15 10:23:22;;;;;;;2.63;2.28;;;;;;;;;;5003313;28;20520;-77
2021/03/15 10:26:05;;;;;;;2.95;2.20;;;;;;;;;;5022146;28;20091;-76
2021/03/15 10:28:32;;;;;;;2.83;2.10;;;;;;;;;;4996642;28;20081;-73
2021/03/15 10:31:19;;;;;;;2.63;2.30;;;;;;;;;;5010616;28;20049;-75
2021/03/15 10:33:48;;;;;;;3.47;2.22;;;;;;;;;;5001488;28;20081;-76
2021/03/15 10:36:21;;;;;;;3.10;2.25;;;;;;;;;;4990994;28;20095;-76
2021/03/15 10:38:51;;;;;;;3.05;2.75;;;;;;;;;;5001018;28;20096;-77
2021/03/15 10:41:18;;;;;;;3.90;2.38;;;;;;;;;;4983991;28;20057;-73
2021/03/15 10:43:45;;;;;;;4.47;2.40;;;;;;;;;;4996157;28;20111;-74
2021/03/15 10:46:21;;;;;;;3.17;2.60;;;;;;;;;;5001799;28;20095;-74
2021/03/15 10:48:47;;;;;;;4.10;2.90;;;;;;;;;;5019097;28;20054;-72
2021/03/15 10:51:14;;;;;;;2.70;2.50;;;;;;;;;;5004055;28;20049;-73
2021/03/15 10:53:45;;;;;;;2.70;2.08;;;;;;;;;;5016817;28;20137;-74
2021/03/15 10:56:16;;;;;;;3.47;2.60;;;;;;;;;;5017717;28;20833;-75
2021/03/15 10:58:42;;;;;;;3.10;2.47;;;;;;;;;;4984333;28;20049;-77
2021/03/15 11:01:08;;;;;;;2.83;2.40;;;;;;;;;;5001015;28;20386;-75
2021/03/15 11:03:35;;;;;;;3.00;2.50;;;;;;;;;;5016962;28;20052;-76
2021/03/15 11:06:30;;;;;;;3.05;2.55;;;;;;;;;;5015732;28;20416;-74
2021/03/15 11:08:57;;;;;;;5.57;3.45;;;;;;;;;;5017222;28;20404;-76
2021/03/15 11:11:29;;;;;;;2.63;2.13;;;;;;;;;;5014129;28;20520;-74
2021/03/15 11:13:57;;;;;;;3.28;2.78;;;;;;;;;;5015121;28;20050;-73
2021/03/15 11:16:30;;;;;;;2.78;2.42;;;;;;;;;;4997974;28;20055;-73
2021/03/15 11:19:15;;;;;;;3.15;2.72;;;;;;;;;;5017651;28;20221;-73
2021/03/15 11:21:44;;;;;;;3.35;2.58;;;;;;;;;;5023798;28;20493;-75
2021/03/15 11:24:11;;;;;;;2.55;2.33;;;;;;;;;;5007618;28;20057;-74
2021/03/15 11:26:44;;;;;;;3.03;2.47;;;;;;;;;;4999408;28;20105;-75
2021/03/15 11:29:10;;;;;;;3.33;2.72;;;;;;;;;;5014868;28;20053;-75
2021/03/15 11:31:37;;;;;;;3.80;2.70;;;;;;;;;;4981070;28;20058;-74
2021/03/15 11:34:04;;;;;;;2.88;2.38;;;;;;;;;;5001923;28;20203;-74
2021/03/15 11:36:33;;;;;;;3.10;2.45;;;;;;;;;;4996550;28;20117;-75
2021/03/15 11:39:05;;;;;;;3.80;3.10;;;;;;;;;;5001444;28;20049;-74
2021/03/15 11:41:39;;;;;;;3.05;2.10;;;;;;;;;;5016805;28;20076;-75
2021/03/15 11:44:05;;;;;;;2.15;1.90;;;;;;;;;;5017122;28;20513;-75
2021/03/15 11:46:32;;;;;;;3.10;2.83;;;;;;;;;;4998408;28;20092;-75
2021/03/15 11:48:58;;;;;;;3.95;2.70;;;;;;;;;;4999140;28;20060;-76
2021/03/15 11:51:25;;;;;;;2.60;2.40;;;;;;;;;;4998372;28;20046;-74
2021/03/15 11:53:51;;;;;;;2.78;2.38;;;;;;;;;;4997501;28;20495;-74
2021/03/15 11:56:17;;;;;;;2.95;2.30;;;;;;;;;;4998367;28;20051;-75
2021/03/15 11:58:43;;;;;;;2.33;2.13;;;;;;;;;;4974873;28;20068;-74
2021/03/15 12:01:09;;;;;;;3.92;2.95;;;;;;;;;;4984427;28;20049;-74
2021/03/15 12:03:36;;;;;;;2.85;2.55;;;;;;;;;;5014764;28;20053;-74
2021/03/15 12:06:03;;;;;;;1.60;1.50;;;;;;;;;;5015068;28;20103;-75
2021/03/15 12:08:30;;;;;;;2.55;1.83;;;;;;;;;;4981135;28;20112;-74
2021/03/15 12:10:57;;;;;;;2.00;1.70;;;;;;;;;;4991438;28;20123;-74
2021/03/15 12:13:23;;;;;;;3.42;1.40;;;;;;;;;;5017361;28;20528;-74
2021/03/15 12:15:50;;;;;;;1.92;1.80;;;;;;;;;;5015937;28;20053;-75
2021/03/15 12:18:17;;;;;;;1.80;1.63;;;;;;;;;;4999721;28;20050;-75
2021/03/15 12:20:43;;;;;;;2.25;1.35;;;;;;;;;;5008695;28;20508;-75
2021/03/15 12:23:10;;;;;;;1.48;1.08;;;;;;;;;;5020454;28;20049;-76
2021/03/15 12:25:37;;;;;;;1.13;1.02;;;;;;;;;;5005167;28;20188;-73
2021/03/15 12:28:04;;;;;;;1.55;1.27;;;;;;;;;;5003170;28;20045;-76
2021/03/15 12:30:30;;;;;;;1.13;1.13;;;;;;;;;;5004852;28;20050;-74
2021/03/15 12:32:56;;;;;;;1.88;1.40;;;;;;;;;;5023050;28;20057;-74
2021/03/15 12:35:24;;;;;;;2.40;1.75;;;;;;;;;;4990467;28;20050;-74
2021/03/15 12:37:50;;;;;;;2.42;2.28;;;;;;;;;;5025401;28;20086;-74
2021/03/15 12:40:21;;;;;;;1.88;1.77;;;;;;;;;;5005425;28;20049;-74
2021/03/15 12:42:47;;;;;;;2.03;1.92;;;;;;;;;;5007416;28;20119;-74
2021/03/15 12:45:13;;;;;;;2.97;1.92;;;;;;;;;;5003323;28;20541;-74
2021/03/15 12:47:39;;;;;;;2.65;1.60;;;;;;;;;;5020607;28;20042;-74
2021/03/15 12:50:06;;;;;;;1.45;1.27;;;;;;;;;;5020778;28;20053;-74
2021/03/15 12:52:32;;;;;;;1.90;1.80;;;;;;;;;;4995990;28;20467;-74
2021/03/15 12:54:59;;;;;;;2.58;1.52;;;;;;;;;;5019524;28;20046;-74
2021/03/15 12:57:25;;;;;;;1.40;1.30;;;;;;;;;;5002200;28;20409;-73
2021/03/15 12:59:52;;;;;;;1.65;1.55;;;;;;;;;;5021003;28;20080;-74
2021/03/15 13:02:19;;;;;;;2.00;1.70;;;;;;;;;;5024670;28;20108;-74
2021/03/15 13:04:45;;;;;;;3.17;1.63;;;;;;;;;;5005040;28;20068;-74
2021/03/15 13:07:12;;;;;;;1.77;1.60;;;;;;;;;;5001906;28;20041;-74
2021/03/15 13:09:38;;;;;;;2.75;1.98;;;;;;;;;;5020749;28;20049;-74
2021/03/15 13:12:05;;;;;;;2.53;1.70;;;;;;;;;;5000601;28;20050;-74
2021/03/15 13:14:32;;;;;;;1.88;1.63;;;;;;;;;;5003106;28;20046;-74
2021/03/15 13:16:58;;;;;;;1.65;1.55;;;;;;;;;;5017826;28;20049;-74
2021/03/15 13:19:24;;;;;;;1.67;1.55;;;;;;;;;;5002944;28;20049;-74
2021/03/15 13:21:50;;;;;;;2.22;1.92;;;;;;;;;;5020432;28;20046;-74
2021/03/15 13:24:17;;;;;;;1.52;1.10;;;;;;;;;;5017970;28;20041;-74
2021/03/15 13:26:43;;;;;;;1.13;0.95;;;;;;;;;;5018978;28;20056;-75
2021/03/15 13:29:09;;;;;;;1.00;0.93;;;;;;;;;;5012808;28;20077;-74
2021/03/15 13:31:35;;;;;;;0.95;0.82;;;;;;;;;;5009676;28;20107;-74
2021/03/15 13:34:02;;;;;;;0.80;0.77;;;;;;;;;;5010927;28;20049;-74
2021/03/15 13:36:28;;;;;;;1.27;1.10;;;;;;;;;;5001793;28;20053;-74
2021/03/15 13:38:54;;;;;;;1.25;1.17;;;;;;;;;;5007926;28;20045;-74
2021/03/15 13:41:21;;;;;;;0.90;0.90;;;;;;;;;;5033049;28;20054;-74
2021/03/15 13:43:47;;;;;;;1.45;1.20;;;;;;;;;;5033100;28;20103;-74
2021/03/15 13:46:13;;;;;;;1.65;1.30;;;;;;;;;;5032412;28;20123;-74
2021/03/15 13:48:39;;;;;;;2.25;1.33;;;;;;;;;;5015081;28;20041;-74
2021/03/15 13:51:05;;;;;;;3.42;2.20;;;;;;;;;;5025485;28;20412;-74
2021/03/15 13:53:31;;;;;;;3.92;1.90;;;;;;;;;;5030142;28;20072;-74
2021/03/15 13:55:57;;;;;;;3.10;1.83;;;;;;;;;;5031955;28;20115;-74
2021/03/15 13:58:23;;;;;;;1.50;1.40;;;;;;;;;;5032866;28;20467;-74
2021/03/15 14:00:49;;;;;;;1.92;1.30;;;;;;;;;;5032465;28;20496;-74
2021/03/15 14:03:15;;;;;;;2.30;1.70;;;;;;;;;;5032408;28;20049;-74
2021/03/15 14:05:42;;;;;;;2.22;1.55;;;;;;;;;;5031822;28;20053;-74
2021/03/15 14:08:08;;;;;;;4.88;2.05;;;;;;;;;;5032013;28;20084;-74
2021/03/15 14:10:34;;;;;;;2.88;1.65;;;;;;;;;;5032260;28;20570;-74
2021/03/15 14:13:00;;;;;;;2.05;1.58;;;;;;;;;;5032057;28;20049;-74
2021/03/15 14:15:26;;;;;;;2.00;1.42;;;;;;;;;;5031655;28;20392;-74
2021/03/15 14:17:52;;;;;;;1.80;1.40;;;;;;;;;;5026500;28;20050;-74
2021/03/15 14:20:19;;;;;;;2.35;1.33;;;;;;;;;;5028117;28;20053;-74
2021/03/15 14:22:45;;;;;;;3.10;1.70;;;;;;;;;;5015069;28;20509;-74
2021/03/15 14:25:12;;;;;;;1.65;1.50;;;;;;;;;;5011456;28;20054;-74
2021/03/15 14:27:39;;;;;;;2.72;1.65;;;;;;;;;;4994426;28;20115;-74
2021/03/15 14:30:06;;;;;;;1.95;1.73;;;;;;;;;;5011938;28;20161;-74
2021/03/15 14:32:32;;;;;;;3.15;1.88;;;;;;;;;;4978516;28;20524;-74
2021/03/15 14:34:59;;;;;;;2.70;1.80;;;;;;;;;;4978198;28;20049;-74
2021/03/15 14:37:26;;;;;;;2.33;1.88;;;;;;;;;;5011258;28;20540;-74
2021/03/15 14:39:52;;;;;;;4.70;2.13;;;;;;;;;;4994621;28;20053;-74
2021/03/15 14:42:19;;;;;;;2.75;2.15;;;;;;;;;;4994370;28;20050;-74
2021/03/15 14:44:46;;;;;;;4.55;2.15;;;;;;;;;;4994099;28;20050;-74
2021/03/15 14:47:12;;;;;;;3.58;2.13;;;;;;;;;;5010859;28;20049;-74
2021/03/15 14:49:38;;;;;;;2.88;2.38;;;;;;;;;;4978465;28;20056;-75
2021/03/15 14:52:04;;;;;;;2.95;2.00;;;;;;;;;;5011622;28;20049;-74
2021/03/15 14:54:30;;;;;;;4.45;1.92;;;;;;;;;;4994207;28;20468;-74
2021/03/15 14:56:57;;;;;;;4.30;2.85;;;;;;;;;;4993566;28;20049;-74
2021/03/15 14:59:23;;;;;;;3.55;2.08;;;;;;;;;;5002339;28;20131;-74